Time;durP1;ratioP1;P1;durP2;ratioP2;P2;SDS_P1;SDS_P2;PMS_P1;PMS_P2;Temp;Humidity;BMP_temperature;BMP_pressure;BME280_temperature;BME280_humidity;BME280_pressure;Samples;Min_cycle;Max_cycle;Signal;HPM_P1;HPM_P2
2024/03/26 00:02:20;;;;;;;38.10;17.80;;;;;;;3.80;85.34;99878.23;110923;1211;99477;-67
2024/03/26 00:04:46;;;;;;;34.20;14.90;;;;;;;3.76;85.47;99874.80;110798;1211;139986;-67
2024/03/26 00:07:12;;;;;;;38.90;16.20;;;;;;;3.71;85.42;99867.70;110954;1211;99027;-67
2024/03/26 00:09:37;;;;;;;35.30;15.50;;;;;;;3.68;85.58;99858.41;111027;1211;99066;-67
2024/03/26 00:12:02;;;;;;;38.20;16.10;;;;;;;3.71;85.81;99866.81;110834;1209;139070;-68
2024/03/26 00:14:28;;;;;;;38.20;14.40;;;;;;;3.72;85.67;99866.27;111102;1211;99182;-67
2024/03/26 00:16:53;;;;;;;37.50;16.00;;;;;;;3.73;85.72;99864.64;110799;1206;138531;-67
2024/03/26 00:19:18;;;;;;;31.50;13.00;;;;;;;3.70;85.57;99860.29;110938;1211;98995;-67
2024/03/26 00:21:44;;;;;;;30.90;13.20;;;;;;;3.67;85.81;99859.16;110916;1211;99019;-67
2024/03/26 00:24:09;;;;;;;30.60;13.80;;;;;;;3.67;85.72;99858.47;110973;1206;138153;-67
2024/03/26 00:26:35;;;;;;;30.70;12.70;;;;;;;3.66;85.86;99859.00;110864;1211;99915;-67
2024/03/26 00:29:01;;;;;;;28.40;12.40;;;;;;;3.65;85.88;99859.21;110859;1211;138695;-67
2024/03/26 00:31:31;;;;;;;30.20;13.70;;;;;;;3.64;85.81;99859.95;110922;1219;100088;-67
2024/03/26 00:33:58;;;;;;;28.40;12.80;;;;;;;3.64;85.91;99856.58;110715;1211;139022;-67
2024/03/26 00:36:23;;;;;;;31.30;12.90;;;;;;;3.64;85.85;99857.47;111090;1211;100356;-68
2024/03/26 00:38:48;;;;;;;34.60;14.10;;;;;;;3.65;86.04;99859.57;110984;1210;98999;-67
2024/03/26 00:41:14;;;;;;;30.00;12.80;;;;;;;3.63;85.97;99858.20;110803;1211;138621;-67
2024/03/26 00:43:39;;;;;;;36.20;13.90;;;;;;;3.60;86.00;99864.47;110932;1211;99057;-67
2024/03/26 00:46:04;;;;;;;30.10;14.80;;;;;;;3.60;86.18;99861.83;110899;1210;139314;-67
2024/03/26 00:48:30;;;;;;;25.60;12.20;;;;;;;3.57;86.11;99863.47;110969;1211;98943;-67
2024/03/26 00:50:55;;;;;;;30.40;12.70;;;;;;;3.56;86.03;99868.45;110917;1206;99115;-67
2024/03/26 00:53:20;;;;;;;23.30;11.90;;;;;;;3.55;86.21;99870.24;110792;1220;138703;-67
2024/03/26 00:55:46;;;;;;;25.80;12.20;;;;;;;3.54;86.07;99867.98;110911;1211;99446;-67
2024/03/26 00:58:11;;;;;;;30.10;12.40;;;;;;;3.54;86.28;99864.27;110853;1206;139065;-67
2024/03/26 01:00:38;;;;;;;28.70;12.30;;;;;;;3.54;86.25;99860.73;110809;1210;99385;-67
2024/03/26 01:03:04;;;;;;;24.30;11.10;;;;;;;3.54;86.38;99860.90;110960;1211;99824;-67
2024/03/26 01:05:29;;;;;;;26.90;11.00;;;;;;;3.55;86.33;99859.48;110855;1212;138553;-66
2024/03/26 01:07:54;;;;;;;26.60;11.30;;;;;;;3.56;86.52;99858.39;110864;1211;99019;-66
2024/03/26 01:10:19;;;;;;;24.70;11.00;;;;;;;3.56;86.16;99856.63;110918;1212;139000;-67
2024/03/26 01:12:44;;;;;;;25.30;11.30;;;;;;;3.55;86.42;99857.55;110830;1211;99136;-66
2024/03/26 01:15:09;;;;;;;23.80;11.30;;;;;;;3.55;86.30;99854.02;110989;1210;99065;-66
2024/03/26 01:17:36;;;;;;;26.70;11.70;;;;;;;3.54;86.52;99857.73;110853;1211;138590;-66
2024/03/26 01:20:01;;;;;;;29.80;14.80;;;;;;;3.53;86.47;99859.19;110903;1211;99118;-67
2024/03/26 01:22:27;;;;;;;41.10;16.20;;;;;;;3.49;86.38;99857.70;110861;1205;138639;-67
2024/03/26 01:24:52;;;;;;;42.50;18.50;;;;;;;3.46;86.39;99860.96;110879;1219;101937;-66
2024/03/26 01:27:18;;;;;;;40.80;18.70;;;;;;;3.45;86.52;99866.29;110948;1211;98999;-66
2024/03/26 01:29:43;;;;;;;39.40;19.60;;;;;;;3.43;86.38;99864.39;110877;1212;138388;-67
2024/03/26 01:32:09;;;;;;;44.10;21.50;;;;;;;3.39;86.40;99864.86;110896;1219;99270;-66
2024/03/26 01:34:34;;;;;;;44.60;21.40;;;;;;;3.33;86.36;99862.91;110835;1206;140625;-66
2024/03/26 01:36:59;;;;;;;50.40;23.60;;;;;;;3.28;86.46;99864.27;110971;1214;99039;-66
2024/03/26 01:39:24;;;;;;;40.90;20.50;;;;;;;3.27;86.45;99865.19;110957;1211;99137;-67
2024/03/26 01:41:50;;;;;;;42.40;21.60;;;;;;;3.25;86.32;99858.51;110862;1206;138944;-66
2024/03/26 01:44:15;;;;;;;44.10;19.70;;;;;;;3.23;86.31;99854.67;110823;1211;98999;-66
2024/03/26 01:46:40;;;;;;;35.90;18.50;;;;;;;3.21;86.27;99852.25;110779;1211;138654;-67
2024/03/26 01:49:07;;;;;;;42.30;20.20;;;;;;;3.18;86.47;99854.64;110703;1207;100945;-66
2024/03/26 01:51:34;;;;;;;35.20;18.60;;;;;;;3.18;86.56;99856.92;110743;1206;99550;-67
2024/03/26 01:54:03;;;;;;;35.30;17.90;;;;;;;3.17;86.61;99853.59;110631;1211;138668;-66
2024/03/26 01:56:29;;;;;;;31.70;16.90;;;;;;;3.14;86.49;99853.85;111063;1211;98946;-67
2024/03/26 01:58:54;;;;;;;37.20;15.80;;;;;;;3.13;86.53;99858.83;110823;1211;138591;-66
2024/03/26 02:01:22;;;;;;;28.70;15.20;;;;;;;3.09;86.42;99857.35;110822;1211;99174;-67
2024/03/26 02:03:47;;;;;;;35.10;15.00;;;;;;;3.07;86.63;99857.41;110886;1211;99819;-66
2024/03/26 02:06:13;;;;;;;35.90;15.00;;;;;;;3.05;86.55;99853.74;110960;1211;98949;-66
2024/03/26 02:08:39;;;;;;;35.40;15.50;;;;;;;3.06;86.61;99854.61;110939;1211;98945;-66
2024/03/26 02:11:05;;;;;;;32.10;15.70;;;;;;;3.06;86.72;99851.95;110762;1211;138331;-67
2024/03/26 02:13:30;;;;;;;29.70;14.50;;;;;;;3.04;86.89;99855.52;110969;1206;101360;-66
2024/03/26 02:15:55;;;;;;;34.90;15.20;;;;;;;3.04;86.68;99856.94;110805;1219;139414;-66
2024/03/26 02:18:20;;;;;;;34.80;15.10;;;;;;;3.03;86.80;99857.86;110908;1206;99114;-66
2024/03/26 02:20:46;;;;;;;38.00;16.00;;;;;;;3.02;86.77;99860.52;110987;1211;97882;-66
2024/03/26 02:23:11;;;;;;;41.00;16.50;;;;;;;2.98;86.65;99858.69;110840;1212;138951;-67
2024/03/26 02:25:36;;;;;;;39.40;16.60;;;;;;;2.96;86.67;99862.63;111018;1218;100852;-66
2024/03/26 02:28:01;;;;;;;40.30;15.90;;;;;;;2.92;86.63;99861.64;110712;1212;139304;-66
2024/03/26 02:30:30;;;;;;;47.10;19.20;;;;;;;2.89;86.58;99862.43;110753;1211;97874;-67
2024/03/26 02:32:55;;;;;;;40.60;17.90;;;;;;;2.88;86.87;99862.09;110493;1211;99277;-67
2024/03/26 02:35:22;;;;;;;41.70;18.70;;;;;;;2.88;86.87;99858.05;110700;1212;138622;-68
2024/03/26 02:37:48;;;;;;;49.80;19.60;;;;;;;2.86;86.81;99861.62;110473;1218;99124;-66
2024/03/26 02:40:13;;;;;;;41.40;17.70;;;;;;;2.85;86.78;99862.55;110564;1212;138500;-66
2024/03/26 02:42:38;;;;;;;39.80;17.30;;;;;;;2.84;86.78;99861.14;110949;1212;100085;-66
2024/03/26 02:45:04;;;;;;;38.50;17.30;;;;;;;2.80;86.84;99862.65;110881;1205;99181;-66
2024/03/26 02:47:29;;;;;;;35.40;15.50;;;;;;;2.77;86.68;99865.91;110822;1211;138414;-66
2024/03/26 02:49:55;;;;;;;42.20;18.00;;;;;;;2.76;87.00;99870.52;110958;1211;99032;-66
2024/03/26 02:52:20;;;;;;;41.60;18.90;;;;;;;2.77;87.04;99875.27;110851;1211;140024;-66
2024/03/26 02:54:45;;;;;;;39.80;17.70;;;;;;;2.79;87.16;99872.03;110848;1222;99147;-66
2024/03/26 02:57:10;;;;;;;40.30;17.30;;;;;;;2.84;87.15;99871.72;110914;1212;98995;-66
2024/03/26 02:59:36;;;;;;;35.60;16.00;;;;;;;2.84;87.04;99870.85;110850;1206;138794;-66
2024/03/26 03:02:02;;;;;;;28.40;15.60;;;;;;;2.81;87.01;99866.88;110795;1212;109787;-66
2024/03/26 03:04:27;;;;;;;35.00;15.90;;;;;;;2.78;86.89;99869.42;110789;1206;140227;-67
2024/03/26 03:06:52;;;;;;;30.10;14.10;;;;;;;2.74;87.11;99866.84;110940;1213;97801;-66
2024/03/26 03:09:18;;;;;;;26.80;13.60;;;;;;;2.73;87.24;99862.84;110873;1211;99188;-66
2024/03/26 03:11:43;;;;;;;31.20;13.70;;;;;;;2.72;87.15;99858.43;110672;1211;139067;-66
2024/03/26 03:14:08;;;;;;;31.10;13.60;;;;;;;2.71;86.96;99858.28;110994;1218;98930;-66
2024/03/26 03:16:34;;;;;;;32.30;15.40;;;;;;;2.70;86.92;99853.91;110852;1206;139070;-67
2024/03/26 03:18:59;;;;;;;32.10;15.10;;;;;;;2.66;86.94;99853.47;110945;1206;99031;-66
2024/03/26 03:21:24;;;;;;;31.30;14.40;;;;;;;2.63;87.04;99848.95;110901;1212;98951;-67
2024/03/26 03:23:49;;;;;;;30.40;14.70;;;;;;;2.59;87.13;99853.13;110856;1211;138652;-67
2024/03/26 03:26:14;;;;;;;31.30;14.20;;;;;;;2.55;86.89;99850.59;110916;1219;99028;-66
2024/03/26 03:28:40;;;;;;;36.10;14.90;;;;;;;2.53;87.18;99847.80;110822;1212;138484;-66
2024/03/26 03:31:05;;;;;;;31.00;14.90;;;;;;;2.51;87.15;99847.16;110877;1212;99082;-66
2024/03/26 03:33:30;;;;;;;29.10;15.50;;;;;;;2.50;87.10;99850.35;110942;1206;99014;-65
2024/03/26 03:35:56;;;;;;;31.10;14.40;;;;;;;2.48;87.19;99859.57;110862;1206;138287;-66
2024/03/26 03:38:22;;;;;;;26.60;13.00;;;;;;;2.48;87.26;99862.04;111100;1212;98989;-66
2024/03/26 03:40:49;;;;;;;32.40;14.60;;;;;;;2.48;87.42;99861.33;110690;1206;138385;-66
2024/03/26 03:43:14;;;;;;;28.90;13.20;;;;;;;2.47;87.13;99864.70;110656;1212;99071;-66
2024/03/26 03:45:40;;;;;;;28.20;13.50;;;;;;;2.48;87.35;99870.86;110651;1212;99070;-66
2024/03/26 03:48:05;;;;;;;30.30;13.70;;;;;;;2.47;87.28;99871.74;110656;1206;138399;-66
2024/03/26 03:50:31;;;;;;;26.10;13.40;;;;;;;2.47;87.20;99869.30;111046;1212;99035;-66
2024/03/26 03:52:56;;;;;;;26.10;13.20;;;;;;;2.45;87.15;99865.64;110816;1206;139432;-66
2024/03/26 03:55:21;;;;;;;26.10;12.50;;;;;;;2.43;87.21;99865.34;110976;1211;99122;-67
2024/03/26 03:57:46;;;;;;;24.60;12.20;;;;;;;2.41;87.29;99867.50;110833;1206;99461;-66
2024/03/26 04:00:13;;;;;;;26.70;12.40;;;;;;;2.38;87.34;99861.94;110810;1206;139340;-66
2024/03/26 04:02:38;;;;;;;26.80;13.60;;;;;;;2.37;87.36;99866.89;111018;1212;99041;-66
2024/03/26 04:05:04;;;;;;;24.40;12.40;;;;;;;2.36;87.44;99864.95;110712;1212;139287;-67
2024/03/26 04:07:29;;;;;;;29.40;15.40;;;;;;;2.35;87.34;99869.39;110873;1212;99322;-66
2024/03/26 04:09:54;;;;;;;31.00;12.80;;;;;;;2.34;87.37;99873.13;110839;1212;139114;-67
2024/03/26 04:12:19;;;;;;;29.50;13.10;;;;;;;2.34;87.39;99873.83;110901;1212;99107;-66
2024/03/26 04:14:45;;;;;;;28.50;13.00;;;;;;;2.36;87.62;99877.66;110868;1212;99021;-66
2024/03/26 04:17:10;;;;;;;29.30;12.50;;;;;;;2.35;87.61;99879.63;110799;1206;138621;-66
2024/03/26 04:19:36;;;;;;;32.20;13.40;;;;;;;2.31;87.57;99875.48;110900;1216;99037;-68
2024/03/26 04:22:01;;;;;;;28.60;13.70;;;;;;;2.32;87.51;99884.45;110838;1211;139608;-67
2024/03/26 04:24:26;;;;;;;29.10;12.80;;;;;;;2.31;87.66;99887.64;110937;1206;97760;-66
2024/03/26 04:26:51;;;;;;;23.70;12.70;;;;;;;2.29;87.54;99888.20;110973;1212;99148;-66
2024/03/26 04:29:17;;;;;;;25.80;12.50;;;;;;;2.27;87.52;99894.23;110759;1218;138461;-66
2024/03/26 04:31:43;;;;;;;26.20;12.70;;;;;;;2.25;87.63;99890.94;110851;1212;99250;-67
2024/03/26 04:34:09;;;;;;;25.90;13.50;;;;;;;2.22;87.59;99893.98;110879;1212;140480;-66
2024/03/26 04:36:34;;;;;;;27.50;12.90;;;;;;;2.22;87.62;99889.06;110855;1205;101760;-66
2024/03/26 04:38:59;;;;;;;29.70;13.50;;;;;;;2.20;87.51;99889.63;110884;1207;98963;-66
2024/03/26 04:41:26;;;;;;;24.70;13.10;;;;;;;2.18;87.71;99885.46;110852;1206;138459;-66
2024/03/26 04:43:51;;;;;;;28.20;13.40;;;;;;;2.17;87.56;99884.59;110834;1212;99056;-67
2024/03/26 04:46:16;;;;;;;26.00;12.90;;;;;;;2.16;87.81;99883.38;110805;1206;138736;-66
2024/03/26 04:48:42;;;;;;;25.80;12.80;;;;;;;2.15;87.44;99880.94;110789;1212;99149;-66
2024/03/26 04:51:07;;;;;;;29.20;12.90;;;;;;;2.12;87.63;99878.70;110947;1211;99032;-66
2024/03/26 04:53:32;;;;;;;28.30;13.60;;;;;;;2.11;87.67;99880.66;110913;1219;138489;-67
2024/03/26 04:55:57;;;;;;;34.80;15.40;;;;;;;2.09;87.76;99882.47;110870;1212;99050;-66
2024/03/26 04:58:22;;;;;;;28.50;12.20;;;;;;;2.09;87.67;99881.23;110857;1206;141154;-66
2024/03/26 05:00:49;;;;;;;32.50;13.90;;;;;;;2.09;87.78;99880.71;110837;1212;101465;-66
2024/03/26 05:03:14;;;;;;;27.00;12.70;;;;;;;2.09;87.75;99885.81;110951;1206;100295;-66
2024/03/26 05:05:39;;;;;;;27.90;12.60;;;;;;;2.07;87.72;99882.17;110909;1222;139304;-66
2024/03/26 05:08:04;;;;;;;28.10;12.80;;;;;;;2.06;87.65;99887.98;110877;1212;99095;-66
2024/03/26 05:10:29;;;;;;;27.50;12.90;;;;;;;2.05;87.85;99885.55;110864;1212;138494;-66
2024/03/26 05:12:54;;;;;;;24.60;11.90;;;;;;;2.06;87.82;99879.20;110850;1212;99045;-66
2024/03/26 05:15:20;;;;;;;30.40;14.20;;;;;;;2.07;87.86;99878.45;110984;1206;99021;-66
2024/03/26 05:17:45;;;;;;;24.40;11.50;;;;;;;2.06;87.76;99879.17;110831;1206;139048;-67
2024/03/26 05:20:10;;;;;;;26.20;11.70;;;;;;;2.06;87.94;99875.84;111016;1212;99098;-66
2024/03/26 05:22:36;;;;;;;27.50;11.40;;;;;;;2.06;87.93;99879.36;110869;1206;139006;-66
2024/03/26 05:25:01;;;;;;;23.40;11.70;;;;;;;2.07;87.76;99874.23;110871;1205;98697;-66
2024/03/26 05:27:26;;;;;;;28.00;11.40;;;;;;;2.08;88.11;99878.27;111057;1212;99109;-66
2024/03/26 05:29:52;;;;;;;20.10;10.90;;;;;;;2.07;87.90;99871.94;110786;1212;138596;-66
2024/03/26 05:32:17;;;;;;;28.40;11.90;;;;;;;2.08;88.02;99871.05;111025;1219;98962;-66
2024/03/26 05:34:42;;;;;;;29.90;12.00;;;;;;;2.09;88.01;99873.67;110762;1206;138451;-66
2024/03/26 05:37:07;;;;;;;25.00;11.20;;;;;;;2.09;87.94;99874.54;110997;1212;98945;-66
2024/03/26 05:39:33;;;;;;;21.00;11.00;;;;;;;2.09;87.99;99875.60;110957;1210;99745;-66
2024/03/26 05:41:58;;;;;;;24.80;12.40;;;;;;;2.09;88.11;99874.71;110796;1212;138395;-66
2024/03/26 05:44:23;;;;;;;24.60;11.80;;;;;;;2.10;88.16;99871.17;111039;1206;99126;-66
2024/03/26 05:46:48;;;;;;;27.40;11.70;;;;;;;2.11;88.12;99871.15;110741;1212;138695;-67
2024/03/26 05:49:13;;;;;;;23.30;11.20;;;;;;;2.13;88.15;99870.77;111013;1212;99032;-67
2024/03/26 05:51:38;;;;;;;31.90;12.10;;;;;;;2.14;88.28;99864.73;110991;1206;100832;-68
2024/03/26 05:54:04;;;;;;;27.20;12.90;;;;;;;2.16;88.31;99866.46;110869;1206;138497;-69
2024/03/26 05:56:29;;;;;;;25.00;11.20;;;;;;;2.17;88.31;99863.61;111012;1212;100257;-67
2024/03/26 05:58:54;;;;;;;28.30;13.60;;;;;;;2.19;88.21;99858.98;110845;1206;138955;-66
2024/03/26 06:01:20;;;;;;;24.50;11.40;;;;;;;2.21;88.31;99857.89;110877;1206;100854;-66
2024/03/26 06:03:45;;;;;;;27.80;13.40;;;;;;;2.23;88.27;99855.55;110819;1219;99023;-66
2024/03/26 06:06:11;;;;;;;28.40;12.60;;;;;;;2.25;88.17;99851.61;110787;1206;138379;-64
2024/03/26 06:08:36;;;;;;;28.90;12.60;;;;;;;2.27;88.51;99852.46;110959;1206;98939;-67
2024/03/26 06:11:01;;;;;;;32.50;14.80;;;;;;;2.30;88.39;99848.36;110663;1212;138805;-66
2024/03/26 06:13:26;;;;;;;33.60;13.90;;;;;;;2.33;88.33;99853.94;110929;1206;99028;-66
2024/03/26 06:16:04;;;;;;;31.10;12.50;;;;;;;2.36;88.45;99854.92;110779;1212;138635;-66
2024/03/26 06:18:29;;;;;;;31.00;12.80;;;;;;;2.39;88.48;99856.61;111031;1210;112994;-65
2024/03/26 06:20:54;;;;;;;23.80;12.00;;;;;;;2.43;88.68;99851.76;110938;1206;99047;-65
2024/03/26 06:23:19;;;;;;;28.90;12.70;;;;;;;2.47;88.57;99857.48;110922;1209;139182;-66
2024/03/26 06:25:44;;;;;;;26.40;12.10;;;;;;;2.50;88.42;99857.42;110916;1206;101223;-66
2024/03/26 06:28:09;;;;;;;32.00;13.30;;;;;;;2.54;88.65;99854.31;110860;1212;140826;-66
2024/03/26 06:30:35;;;;;;;31.10;13.60;;;;;;;2.58;88.77;99858.11;110920;1207;99108;-66
2024/03/26 06:33:00;;;;;;;29.10;12.80;;;;;;;2.61;88.72;99855.19;110948;1211;100009;-68
2024/03/26 06:35:25;;;;;;;30.30;14.40;;;;;;;2.65;88.76;99859.15;110840;1212;138771;-67
2024/03/26 06:37:51;;;;;;;34.40;14.40;;;;;;;2.69;88.74;99859.58;110757;1222;99857;-68
2024/03/26 06:40:16;;;;;;;31.70;13.50;;;;;;;2.74;88.85;99854.52;110814;1222;138701;-67
2024/03/26 06:42:42;;;;;;;31.30;14.30;;;;;;;2.78;88.71;99860.77;110721;1206;99066;-68
2024/03/26 06:45:07;;;;;;;29.90;13.70;;;;;;;2.81;89.04;99855.56;111366;1212;99019;-68
2024/03/26 06:47:33;;;;;;;33.30;15.70;;;;;;;2.86;89.07;99854.92;111416;1210;139465;-68
2024/03/26 06:49:58;;;;;;;29.30;13.90;;;;;;;2.91;89.04;99852.69;111444;1206;99079;-68
2024/03/26 06:52:23;;;;;;;30.00;13.50;;;;;;;2.96;89.15;99849.91;111450;1212;139482;-67
2024/03/26 06:54:49;;;;;;;28.50;14.00;;;;;;;3.03;89.23;99850.10;111468;1206;99160;-67
2024/03/26 06:57:14;;;;;;;29.40;13.30;;;;;;;3.07;89.24;99849.11;111532;1212;99031;-67
2024/03/26 06:59:39;;;;;;;27.60;12.90;;;;;;;3.13;89.27;99853.90;111414;1212;138323;-65
2024/03/26 07:02:05;;;;;;;27.40;13.50;;;;;;;3.20;89.30;99848.58;110759;1206;100724;-66
2024/03/26 07:04:30;;;;;;;26.70;13.00;;;;;;;3.27;89.36;99847.88;111391;1206;139813;-65
2024/03/26 07:06:56;;;;;;;29.70;14.20;;;;;;;3.32;89.48;99848.61;111481;1206;99077;-67
2024/03/26 07:09:21;;;;;;;26.70;13.40;;;;;;;3.39;89.66;99846.14;111565;1206;99052;-68
2024/03/26 07:11:46;;;;;;;27.00;13.30;;;;;;;3.45;89.64;99840.34;111287;1206;138239;-67
2024/03/26 07:14:12;;;;;;;28.00;13.20;;;;;;;3.51;89.55;99841.40;111427;1210;98963;-68
2024/03/26 07:16:38;;;;;;;26.30;12.10;;;;;;;3.55;89.34;99840.23;111387;1210;138783;-68
2024/03/26 07:19:03;;;;;;;28.90;14.40;;;;;;;3.59;89.54;99837.30;111408;1206;98549;-68
2024/03/26 07:21:28;;;;;;;26.30;13.10;;;;;;;3.66;89.55;99836.23;111529;1212;99087;-67
2024/03/26 07:23:53;;;;;;;27.30;12.00;;;;;;;3.74;89.52;99837.40;111301;1206;138548;-68
2024/03/26 07:26:19;;;;;;;24.90;11.10;;;;;;;3.79;89.59;99835.48;111486;1206;99048;-69
2024/03/26 07:28:44;;;;;;;25.70;11.80;;;;;;;3.82;89.44;99834.15;111508;1209;138966;-69
2024/03/26 07:31:09;;;;;;;24.90;12.20;;;;;;;3.84;89.71;99837.11;111494;1206;98959;-67
2024/03/26 07:33:34;;;;;;;29.70;13.40;;;;;;;3.90;89.75;99843.13;111576;1212;103915;-68
2024/03/26 07:35:59;;;;;;;33.00;13.10;;;;;;;3.99;89.82;99838.10;111353;1206;138666;-68
2024/03/26 07:38:25;;;;;;;28.00;13.40;;;;;;;4.05;89.93;99831.55;111577;1212;98939;-69
2024/03/26 07:40:50;;;;;;;27.40;12.60;;;;;;;4.12;90.00;99830.80;111329;1206;139896;-69
2024/03/26 07:43:17;;;;;;;23.80;11.30;;;;;;;4.18;89.82;99825.83;111463;1209;98735;-68
2024/03/26 07:45:42;;;;;;;29.30;12.90;;;;;;;4.24;89.93;99824.41;111450;1211;98976;-67
2024/03/26 07:48:07;;;;;;;20.20;12.00;;;;;;;4.29;89.85;99818.97;111289;1212;138292;-71
2024/03/26 07:50:32;;;;;;;27.80;12.10;;;;;;;4.35;89.75;99822.67;111302;1206;99115;-70
2024/03/26 07:52:57;;;;;;;23.40;11.70;;;;;;;4.40;89.88;99818.79;111312;1206;139418;-70
2024/03/26 07:55:23;;;;;;;33.90;12.00;;;;;;;4.46;89.96;99824.60;111463;1212;99279;-71
2024/03/26 07:57:48;;;;;;;21.60;11.50;;;;;;;4.53;90.00;99824.58;111441;1206;99208;-69
2024/03/26 08:00:13;;;;;;;22.80;10.60;;;;;;;4.59;90.05;99821.19;111315;1206;140524;-67
2024/03/26 08:02:39;;;;;;;24.30;11.20;;;;;;;4.67;89.91;99821.83;111518;1206;99267;-67
2024/03/26 08:05:05;;;;;;;23.90;9.70;;;;;;;4.73;90.21;99818.80;111297;1206;138419;-67
2024/03/26 08:07:31;;;;;;;21.20;9.70;;;;;;;4.78;89.96;99817.02;111503;1211;98940;-68
2024/03/26 08:09:56;;;;;;;20.20;9.90;;;;;;;4.81;89.87;99815.88;111359;1206;138496;-68
2024/03/26 08:12:21;;;;;;;22.20;10.70;;;;;;;4.85;89.85;99814.50;111426;1206;97841;-68
2024/03/26 08:14:46;;;;;;;19.00;9.60;;;;;;;4.91;90.03;99806.32;111363;1206;99048;-67
2024/03/26 08:17:12;;;;;;;16.10;9.80;;;;;;;4.98;90.03;99802.02;111353;1206;138758;-68
2024/03/26 08:19:37;;;;;;;29.70;9.90;;;;;;;5.04;89.90;99794.73;111406;1206;99023;-68
2024/03/26 08:22:02;;;;;;;21.10;9.60;;;;;;;5.08;89.83;99794.41;111310;1206;138817;-67
2024/03/26 08:24:27;;;;;;;30.50;9.90;;;;;;;5.14;89.87;99793.48;111437;1212;99164;-68
2024/03/26 08:26:52;;;;;;;23.50;9.40;;;;;;;5.21;89.98;99794.98;111453;1206;99054;-67
2024/03/26 08:29:17;;;;;;;23.00;9.00;;;;;;;5.27;89.87;99787.86;111349;1206;138446;-67
2024/03/26 08:31:44;;;;;;;16.20;8.30;;;;;;;5.33;89.85;99783.93;111357;1212;99057;-67
2024/03/26 08:34:09;;;;;;;15.70;8.30;;;;;;;5.39;89.81;99778.92;111359;1218;139808;-67
2024/03/26 08:36:34;;;;;;;21.30;9.40;;;;;;;5.44;89.69;99775.76;111404;1210;100037;-67
2024/03/26 08:38:59;;;;;;;14.30;8.00;;;;;;;5.48;89.76;99778.09;111431;1206;98958;-68
2024/03/26 08:41:25;;;;;;;17.70;9.00;;;;;;;5.52;89.65;99771.38;111271;1212;138283;-67
2024/03/26 08:43:50;;;;;;;24.40;9.20;;;;;;;5.57;89.72;99770.86;111195;1212;98987;-65
2024/03/26 08:46:15;;;;;;;20.00;9.30;;;;;;;5.64;89.74;99761.01;110774;1206;139926;-67
2024/03/26 08:48:41;;;;;;;24.80;10.20;;;;;;;5.69;89.72;99762.95;110892;1211;98986;-66
2024/03/26 08:51:06;;;;;;;19.10;9.40;;;;;;;5.75;89.69;99762.35;110955;1206;99071;-66
2024/03/26 08:53:31;;;;;;;18.20;9.90;;;;;;;5.82;89.60;99758.55;110719;1206;138558;-67
2024/03/26 08:55:57;;;;;;;17.70;8.70;;;;;;;5.86;89.52;99763.00;110770;1210;100091;-66
2024/03/26 08:58:22;;;;;;;14.40;7.50;;;;;;;5.89;89.57;99763.45;110823;1206;138835;-67
2024/03/26 09:00:47;;;;;;;18.30;9.50;;;;;;;5.93;89.43;99759.75;110798;1212;99192;-66
2024/03/26 09:03:13;;;;;;;17.90;9.20;;;;;;;5.98;89.46;99752.67;110837;1206;99015;-67
2024/03/26 09:05:38;;;;;;;17.80;8.20;;;;;;;6.03;89.47;99750.70;110750;1212;138336;-67
2024/03/26 09:08:03;;;;;;;17.70;8.30;;;;;;;6.10;89.54;99745.06;110924;1212;99089;-66
2024/03/26 09:10:29;;;;;;;18.40;7.90;;;;;;;6.18;89.42;99735.86;110740;1212;138578;-67
2024/03/26 09:12:55;;;;;;;16.90;7.80;;;;;;;6.26;89.39;99736.64;110759;1206;98938;-67
2024/03/26 09:15:20;;;;;;;13.40;7.50;;;;;;;6.31;89.23;99733.77;110838;1211;99057;-67
2024/03/26 09:17:45;;;;;;;18.20;8.00;;;;;;;6.34;89.10;99730.80;110770;1206;138375;-67
2024/03/26 09:20:11;;;;;;;15.30;7.90;;;;;;;6.37;89.07;99732.30;110915;1212;99044;-68
2024/03/26 09:22:36;;;;;;;13.80;7.60;;;;;;;6.41;89.02;99728.95;110800;1210;138757;-68
2024/03/26 09:25:02;;;;;;;17.60;8.40;;;;;;;6.46;88.96;99727.14;110834;1211;99910;-67
2024/03/26 09:27:27;;;;;;;14.60;7.80;;;;;;;6.49;88.96;99725.95;111061;1206;99251;-67
2024/03/26 09:29:53;;;;;;;15.00;8.30;;;;;;;6.55;88.96;99725.52;110707;1206;138463;-68
2024/03/26 09:32:18;;;;;;;15.60;8.20;;;;;;;6.60;88.89;99726.54;110766;1206;100350;-67
2024/03/26 09:34:44;;;;;;;14.10;7.70;;;;;;;6.65;88.69;99721.02;110812;1220;139098;-66
2024/03/26 09:37:10;;;;;;;14.30;7.30;;;;;;;6.70;88.74;99719.73;110868;1218;99031;-66
2024/03/26 09:39:35;;;;;;;16.60;7.50;;;;;;;6.74;88.66;99712.10;110826;1205;98993;-67
2024/03/26 09:42:03;;;;;;;16.80;7.80;;;;;;;6.77;88.55;99713.39;110798;1210;138492;-67
2024/03/26 09:44:30;;;;;;;12.00;7.50;;;;;;;6.83;88.56;99715.79;110993;1206;99448;-69
2024/03/26 09:46:57;;;;;;;13.40;7.40;;;;;;;6.92;88.48;99711.17;110912;1209;139462;-67
2024/03/26 09:49:26;;;;;;;16.90;6.50;;;;;;;6.97;88.40;99703.48;110862;1211;99164;-70
2024/03/26 09:51:53;;;;;;;12.10;6.90;;;;;;;7.00;88.40;99695.89;110644;1206;138699;-69
2024/03/26 09:54:22;;;;;;;15.50;7.90;;;;;;;7.02;88.17;99692.59;111057;1211;99040;-66
2024/03/26 09:56:48;;;;;;;10.50;6.50;;;;;;;7.04;88.17;99686.45;111191;1206;99083;-68
2024/03/26 09:59:15;;;;;;;18.00;8.70;;;;;;;7.10;88.16;99690.29;111355;1206;138435;-68
2024/03/26 10:01:44;;;;;;;14.70;7.90;;;;;;;7.14;87.96;99684.40;111419;1206;99686;-68
2024/03/26 10:04:09;;;;;;;10.40;6.90;;;;;;;7.20;87.96;99683.63;110939;1211;138590;-68
2024/03/26 10:06:36;;;;;;;14.50;7.20;;;;;;;7.26;87.93;99685.67;110906;1206;100087;-69
2024/03/26 10:09:02;;;;;;;18.70;7.50;;;;;;;7.32;87.78;99673.81;110681;1206;112939;-67
2024/03/26 10:11:27;;;;;;;17.00;6.90;;;;;;;7.38;87.73;99671.23;110740;1212;139041;-68
2024/03/26 10:13:53;;;;;;;12.40;7.20;;;;;;;7.46;87.88;99669.27;110921;1206;99069;-67
2024/03/26 10:16:18;;;;;;;13.30;7.60;;;;;;;7.55;87.63;99667.81;110785;1211;138966;-68
2024/03/26 10:18:44;;;;;;;13.70;6.90;;;;;;;7.59;87.45;99661.55;110881;1211;99611;-69
2024/03/26 10:21:09;;;;;;;22.20;7.60;;;;;;;7.63;87.38;99662.46;110879;1211;108444;-69
2024/03/26 10:23:34;;;;;;;11.50;6.80;;;;;;;7.67;87.31;99655.70;110759;1206;138764;-69
2024/03/26 10:26:00;;;;;;;16.00;8.20;;;;;;;7.71;87.18;99649.10;110880;1218;97900;-69
2024/03/26 10:28:25;;;;;;;15.00;7.00;;;;;;;7.77;87.20;99649.52;110966;1210;138866;-68
2024/03/26 10:30:51;;;;;;;13.00;6.80;;;;;;;7.81;87.10;99649.98;110905;1212;99064;-66
2024/03/26 10:33:19;;;;;;;10.40;6.70;;;;;;;7.86;86.89;99638.73;111353;1205;100552;-67
2024/03/26 10:35:52;;;;;;;14.50;6.30;;;;;;;7.89;86.86;99636.24;111406;1206;139308;-66
2024/03/26 10:38:20;;;;;;;12.90;6.30;;;;;;;7.94;86.73;99629.80;110860;1206;99356;-66
2024/03/26 10:41:03;;;;;;;16.80;6.50;;;;;;;7.97;86.61;99631.05;110596;1211;139098;-65
2024/03/26 10:43:28;;;;;;;9.10;5.70;;;;;;;8.02;86.51;99626.89;111000;1211;98994;-67
2024/03/26 10:45:54;;;;;;;12.80;7.00;;;;;;;8.07;86.49;99620.61;110716;1211;139590;-66
2024/03/26 10:48:20;;;;;;;12.70;6.70;;;;;;;8.11;86.28;99617.40;111066;1206;98955;-71
2024/03/26 10:50:47;;;;;;;12.70;6.90;;;;;;;8.13;86.20;99604.63;111412;1211;107684;-72
2024/03/26 10:53:13;;;;;;;13.00;7.30;;;;;;;8.19;86.24;99600.10;111307;1206;138970;-71
2024/03/26 10:55:39;;;;;;;17.80;6.70;;;;;;;8.22;86.14;99597.27;111424;1211;99064;-66
2024/03/26 10:58:05;;;;;;;12.80;7.30;;;;;;;8.26;86.11;99596.69;111307;1205;139911;-67
2024/03/26 11:00:34;;;;;;;14.30;7.60;;;;;;;8.31;85.99;99592.70;111393;1206;98991;-66
2024/03/26 11:03:00;;;;;;;14.50;6.90;;;;;;;8.35;85.85;99590.02;110738;1212;99653;-67
2024/03/26 11:05:26;;;;;;;12.80;7.00;;;;;;;8.40;85.83;99585.52;110883;1212;140606;-66
2024/03/26 11:07:54;;;;;;;12.40;7.50;;;;;;;8.44;85.64;99578.35;111399;1211;99124;-67